CSN3105 ZGGG-ZBAD
Flight info
| Callsign | CSN3105 |
|---|---|
| Flight time | N/A |
| Altitude | 35100 |
| Route | MIKIP A461 BUBDA W56 ORODO W62 TEKIL G212 BELAX |
| Aircraft | B77W/H-SDE3/L |
Departure
| Time | 2026-05-04 13:12 |
|---|---|
| Airport | Guangzhou Baiyun International Airport (ZGGG) |
Arrival
| Time | N/A |
|---|---|
| Airport | Beijing Daxing International Airport (ZBAD) |
| Time | Latitude | Longitude | Altitude | Speed | Heading |
|---|---|---|---|---|---|
| 2026-05-04 12:26 | 23.40168 | 113.30227 | 57 ft | 0 kts | 193° |
| 2026-05-04 12:42 | 23.40169 | 113.30227 | 57 ft | 1 kts | 194° |
| 2026-05-04 12:43 | 23.40180 | 113.30230 | 57 ft | 0 kts | 193° |
| 2026-05-04 12:43 | 23.40191 | 113.30232 | 57 ft | 2 kts | 186° |
| 2026-05-04 12:43 | 23.40206 | 113.30232 | 57 ft | 2 kts | 170° |
| 2026-05-04 12:43 | 23.40220 | 113.30228 | 57 ft | 2 kts | 156° |
| 2026-05-04 12:44 | 23.40234 | 113.30220 | 57 ft | 2 kts | 143° |
| 2026-05-04 12:44 | 23.40245 | 113.30209 | 57 ft | 2 kts | 129° |
| 2026-05-04 12:44 | 23.40253 | 113.30196 | 57 ft | 2 kts | 116° |
| 2026-05-04 12:44 | 23.40257 | 113.30184 | 57 ft | 0 kts | 105° |
| 2026-05-04 12:45 | 23.40258 | 113.30182 | 57 ft | 0 kts | 104° |
| 2026-05-04 12:50 | 23.40255 | 113.30197 | 57 ft | 3 kts | 104° |
| 2026-05-04 12:50 | 23.40245 | 113.30239 | 57 ft | 7 kts | 104° |
| 2026-05-04 12:50 | 23.40238 | 113.30293 | 57 ft | 7 kts | 91° |
| 2026-05-04 12:50 | 23.40247 | 113.30342 | 57 ft | 5 kts | 70° |
| 2026-05-04 12:51 | 23.40272 | 113.30381 | 57 ft | 6 kts | 49° |
| 2026-05-04 12:51 | 23.40300 | 113.30416 | 57 ft | 6 kts | 46° |
| 2026-05-04 12:51 | 23.40330 | 113.30451 | 57 ft | 6 kts | 47° |
| 2026-05-04 12:51 | 23.40352 | 113.30493 | 57 ft | 6 kts | 77° |
| 2026-05-04 12:52 | 23.40348 | 113.30557 | 57 ft | 10 kts | 103° |
| 2026-05-04 12:52 | 23.40328 | 113.30650 | 57 ft | 14 kts | 103° |
| 2026-05-04 12:52 | 23.40301 | 113.30764 | 57 ft | 15 kts | 104° |
| 2026-05-04 12:52 | 23.40278 | 113.30823 | 57 ft | 6 kts | 141° |
| 2026-05-04 12:53 | 23.40235 | 113.30836 | 57 ft | 7 kts | 175° |
| 2026-05-04 12:53 | 23.40177 | 113.30833 | 57 ft | 9 kts | 192° |
| 2026-05-04 12:53 | 23.40100 | 113.30814 | 57 ft | 12 kts | 193° |
| 2026-05-04 12:53 | 23.40008 | 113.30790 | 57 ft | 14 kts | 194° |
| 2026-05-04 12:54 | 23.39899 | 113.30761 | 57 ft | 17 kts | 194° |
| 2026-05-04 12:54 | 23.39778 | 113.30727 | 57 ft | 18 kts | 193° |
| 2026-05-04 12:54 | 23.39648 | 113.30693 | 57 ft | 18 kts | 194° |
| 2026-05-04 12:54 | 23.39585 | 113.30676 | 57 ft | 6 kts | 189° |
| 2026-05-04 12:55 | 23.39539 | 113.30690 | 57 ft | 7 kts | 140° |
| 2026-05-04 12:55 | 23.39509 | 113.30745 | 57 ft | 9 kts | 104° |
| 2026-05-04 12:55 | 23.39487 | 113.30807 | 57 ft | 8 kts | 139° |
| 2026-05-04 12:55 | 23.39436 | 113.30830 | 57 ft | 8 kts | 174° |
| 2026-05-04 12:56 | 23.39377 | 113.30821 | 57 ft | 10 kts | 193° |
| 2026-05-04 12:56 | 23.39292 | 113.30798 | 57 ft | 14 kts | 193° |
| 2026-05-04 12:56 | 23.39180 | 113.30769 | 57 ft | 18 kts | 193° |
| 2026-05-04 12:56 | 23.39048 | 113.30733 | 57 ft | 20 kts | 194° |
| 2026-05-04 12:57 | 23.38926 | 113.30700 | 57 ft | 14 kts | 194° |
| 2026-05-04 12:57 | 23.38829 | 113.30674 | 57 ft | 14 kts | 193° |
| 2026-05-04 12:57 | 23.38736 | 113.30649 | 57 ft | 13 kts | 194° |
| 2026-05-04 12:57 | 23.38649 | 113.30625 | 57 ft | 12 kts | 193° |
| 2026-05-04 12:58 | 23.38566 | 113.30603 | 57 ft | 11 kts | 193° |
| 2026-05-04 12:58 | 23.38487 | 113.30581 | 57 ft | 11 kts | 194° |
| 2026-05-04 12:58 | 23.38397 | 113.30557 | 57 ft | 14 kts | 194° |
| 2026-05-04 12:58 | 23.38289 | 113.30527 | 57 ft | 17 kts | 194° |
| 2026-05-04 12:59 | 23.38174 | 113.30496 | 57 ft | 16 kts | 193° |
| 2026-05-04 12:59 | 23.38064 | 113.30467 | 57 ft | 15 kts | 194° |
| 2026-05-04 12:59 | 23.37963 | 113.30440 | 57 ft | 14 kts | 194° |
| 2026-05-04 12:59 | 23.37892 | 113.30421 | 57 ft | 10 kts | 194° |
| 2026-05-04 13:00 | 23.37824 | 113.30402 | 57 ft | 9 kts | 194° |
| 2026-05-04 13:00 | 23.37758 | 113.30385 | 57 ft | 9 kts | 193° |
| 2026-05-04 13:00 | 23.37694 | 113.30367 | 57 ft | 9 kts | 194° |
| 2026-05-04 13:00 | 23.37636 | 113.30369 | 57 ft | 7 kts | 147° |
| 2026-05-04 13:01 | 23.37617 | 113.30390 | 57 ft | 0 kts | 114° |
| 2026-05-04 13:05 | 23.37617 | 113.30391 | 57 ft | 0 kts | 114° |
| 2026-05-04 13:05 | 23.37611 | 113.30405 | 57 ft | 3 kts | 114° |
| 2026-05-04 13:06 | 23.37597 | 113.30447 | 57 ft | 8 kts | 105° |
| 2026-05-04 13:06 | 23.37586 | 113.30510 | 57 ft | 7 kts | 90° |
| 2026-05-04 13:06 | 23.37607 | 113.30542 | 57 ft | 4 kts | 20° |
| 2026-05-04 13:06 | 23.37639 | 113.30553 | 57 ft | 1 kts | 14° |
| 2026-05-04 13:11 | 23.37747 | 113.30582 | 57 ft | 45 kts | 14° |
| 2026-05-04 13:12 | 23.38305 | 113.30732 | 57 ft | 114 kts | 14° |
| 2026-05-04 13:12 | 23.39262 | 113.30994 | 92 ft | 165 kts | 16° |
| 2026-05-04 13:12 | 23.40414 | 113.31318 | 623 ft | 172 kts | 14° |
| 2026-05-04 13:12 | 23.41546 | 113.31591 | 1468 ft | 169 kts | 16° |
| 2026-05-04 13:13 | 23.42667 | 113.31933 | 2118 ft | 169 kts | 18° |
| 2026-05-04 13:13 | 23.43788 | 113.32299 | 2655 ft | 170 kts | 18° |
| 2026-05-04 13:13 | 23.44944 | 113.32643 | 3169 ft | 173 kts | 17° |
| 2026-05-04 13:13 | 23.46159 | 113.33000 | 3501 ft | 188 kts | 17° |
| 2026-05-04 13:14 | 23.47477 | 113.33393 | 3859 ft | 205 kts | 16° |
| 2026-05-04 13:14 | 23.48899 | 113.33817 | 4264 ft | 221 kts | 16° |
| 2026-05-04 13:14 | 23.50435 | 113.34274 | 4706 ft | 237 kts | 15° |
| 2026-05-04 13:14 | 23.52089 | 113.34765 | 5120 ft | 255 kts | 15° |
| 2026-05-04 13:15 | 23.53888 | 113.35300 | 5564 ft | 273 kts | 14° |
| 2026-05-04 13:15 | 23.55739 | 113.35828 | 6242 ft | 280 kts | 11° |
| 2026-05-04 13:15 | 23.57650 | 113.36223 | 7047 ft | 281 kts | 7° |
| 2026-05-04 13:15 | 23.59609 | 113.36590 | 7703 ft | 288 kts | 6° |
| 2026-05-04 13:16 | 23.61602 | 113.36965 | 7901 ft | 291 kts | 6° |
| 2026-05-04 13:16 | 23.63573 | 113.37341 | 7919 ft | 289 kts | 7° |
| 2026-05-04 13:16 | 23.65589 | 113.37726 | 7929 ft | 289 kts | 7° |
| 2026-05-04 13:16 | 23.67561 | 113.38103 | 7920 ft | 289 kts | 6° |
| 2026-05-04 13:17 | 23.69549 | 113.38482 | 7925 ft | 290 kts | 7° |
| 2026-05-04 13:17 | 23.70845 | 113.38730 | 7923 ft | 289 kts | 7° |
| 2026-05-04 13:17 | 23.72808 | 113.39105 | 7924 ft | 289 kts | 6° |
| 2026-05-04 13:17 | 23.74803 | 113.39487 | 7925 ft | 290 kts | 6° |
| 2026-05-04 13:18 | 23.76844 | 113.39876 | 8070 ft | 303 kts | 7° |
| 2026-05-04 13:18 | 23.78873 | 113.40266 | 9061 ft | 296 kts | 6° |
| 2026-05-04 13:18 | 23.80900 | 113.40655 | 9888 ft | 296 kts | 5° |
| 2026-05-04 13:18 | 23.82954 | 113.41045 | 10436 ft | 307 kts | 5° |
| 2026-05-04 13:19 | 23.85105 | 113.41454 | 10826 ft | 323 kts | 5° |
| 2026-05-04 13:19 | 23.87419 | 113.41894 | 11230 ft | 341 kts | 5° |
| 2026-05-04 13:19 | 23.89815 | 113.42353 | 11689 ft | 357 kts | 5° |
| 2026-05-04 13:19 | 23.92310 | 113.42831 | 12161 ft | 373 kts | 5° |
| 2026-05-04 13:20 | 23.94953 | 113.43337 | 12661 ft | 389 kts | 5° |
| 2026-05-04 13:20 | 23.97641 | 113.43853 | 13320 ft | 399 kts | 5° |
| 2026-05-04 13:20 | 24.00408 | 113.44385 | 14202 ft | 404 kts | 5° |
| 2026-05-04 13:20 | 24.03197 | 113.44923 | 15176 ft | 407 kts | 5° |
| 2026-05-04 13:21 | 24.06003 | 113.45425 | 16145 ft | 407 kts | 0° |
| 2026-05-04 13:21 | 24.08793 | 113.45505 | 16959 ft | 406 kts | 350° |
| 2026-05-04 13:21 | 24.11640 | 113.45177 | 17822 ft | 409 kts | 347° |
| 2026-05-04 13:21 | 24.14420 | 113.44799 | 18755 ft | 411 kts | 346° |
| 2026-05-04 13:22 | 24.17310 | 113.44405 | 19571 ft | 416 kts | 347° |
| 2026-05-04 13:22 | 24.20207 | 113.44010 | 20292 ft | 424 kts | 347° |
| 2026-05-04 13:22 | 24.23192 | 113.43605 | 21025 ft | 431 kts | 346° |
| 2026-05-04 13:22 | 24.26183 | 113.43200 | 21860 ft | 434 kts | 347° |
| 2026-05-04 13:23 | 24.29177 | 113.42796 | 22639 ft | 438 kts | 346° |
| 2026-05-04 13:23 | 24.32214 | 113.42385 | 23326 ft | 444 kts | 346° |
| 2026-05-04 13:23 | 24.35319 | 113.42065 | 23985 ft | 455 kts | 352° |
| 2026-05-04 13:23 | 24.38548 | 113.42094 | 24675 ft | 464 kts | 354° |
| 2026-05-04 13:24 | 24.41827 | 113.42185 | 25384 ft | 470 kts | 354° |
| 2026-05-04 13:24 | 24.45106 | 113.42281 | 26057 ft | 475 kts | 354° |
| 2026-05-04 13:24 | 24.48426 | 113.42380 | 26755 ft | 480 kts | 354° |
| 2026-05-04 13:25 | 24.55160 | 113.42576 | 28027 ft | 492 kts | 354° |
| 2026-05-04 13:25 | 24.58621 | 113.42674 | 28611 ft | 499 kts | 354° |
| 2026-05-04 13:25 | 24.62092 | 113.42775 | 29274 ft | 503 kts | 353° |
| 2026-05-04 13:25 | 24.65602 | 113.42877 | 30090 ft | 503 kts | 353° |
| 2026-05-04 13:26 | 24.69079 | 113.42979 | 30902 ft | 502 kts | 353° |
| 2026-05-04 13:26 | 24.72604 | 113.43080 | 31190 ft | 502 kts | 353° |
| 2026-05-04 13:26 | 24.79577 | 113.43284 | 31212 ft | 495 kts | 353° |
| 2026-05-04 13:27 | 24.86550 | 113.43478 | 31985 ft | 505 kts | 353° |
| 2026-05-04 13:27 | 24.90042 | 113.43584 | 33168 ft | 494 kts | 352° |
| 2026-05-04 13:27 | 24.93431 | 113.43686 | 34394 ft | 482 kts | 352° |
| 2026-05-04 13:28 | 24.96786 | 113.43782 | 35084 ft | 480 kts | 352° |
| 2026-05-04 13:28 | 25.00132 | 113.43874 | 35214 ft | 483 kts | 352° |
| 2026-05-04 13:28 | 25.06794 | 113.44064 | 35224 ft | 476 kts | 352° |
| 2026-05-04 13:29 | 25.13472 | 113.44253 | 35225 ft | 477 kts | 352° |
| 2026-05-04 13:29 | 25.20100 | 113.44441 | 35229 ft | 478 kts | 352° |
| 2026-05-04 13:30 | 25.26732 | 113.44631 | 35226 ft | 475 kts | 352° |
| 2026-05-04 13:30 | 25.33423 | 113.44822 | 35230 ft | 478 kts | 352° |
| 2026-05-04 13:31 | 25.40031 | 113.45012 | 35232 ft | 477 kts | 352° |
| 2026-05-04 13:31 | 25.46730 | 113.45203 | 35236 ft | 478 kts | 352° |
| 2026-05-04 13:32 | 25.53359 | 113.45395 | 35237 ft | 476 kts | 352° |
| 2026-05-04 13:32 | 25.60013 | 113.45586 | 35239 ft | 477 kts | 352° |
| 2026-05-04 13:33 | 25.66648 | 113.45778 | 35244 ft | 477 kts | 352° |
| 2026-05-04 13:33 | 25.73266 | 113.45970 | 35239 ft | 474 kts | 352° |
| 2026-05-04 13:34 | 25.79883 | 113.46159 | 35237 ft | 477 kts | 352° |
| 2026-05-04 13:34 | 25.86567 | 113.46353 | 35244 ft | 477 kts | 352° |
| 2026-05-04 13:35 | 25.96471 | 113.46059 | 35220 ft | 472 kts | 348° |
| 2026-05-04 13:36 | 26.03054 | 113.45774 | 35211 ft | 477 kts | 348° |
| 2026-05-04 13:36 | 26.09696 | 113.45506 | 35221 ft | 474 kts | 348° |
| 2026-05-04 13:37 | 26.16333 | 113.45243 | 35220 ft | 476 kts | 348° |
| 2026-05-04 13:37 | 26.22976 | 113.44985 | 35220 ft | 475 kts | 348° |
| 2026-05-04 13:38 | 26.29555 | 113.44730 | 35215 ft | 475 kts | 348° |
| 2026-05-04 13:38 | 26.36181 | 113.44474 | 35211 ft | 475 kts | 348° |
| 2026-05-04 13:39 | 26.42828 | 113.44218 | 35201 ft | 476 kts | 348° |
| 2026-05-04 13:39 | 26.45049 | 113.44132 | 35196 ft | 475 kts | 348° |
| 2026-05-04 13:40 | 26.56080 | 113.43707 | 35181 ft | 476 kts | 348° |
| 2026-05-04 13:40 | 26.62653 | 113.43456 | 35180 ft | 475 kts | 348° |
| 2026-05-04 13:41 | 26.69312 | 113.43201 | 35180 ft | 475 kts | 348° |
| 2026-05-04 13:41 | 26.75919 | 113.42947 | 35179 ft | 475 kts | 348° |
| 2026-05-04 13:42 | 26.85818 | 113.42565 | 35182 ft | 475 kts | 348° |
| 2026-05-04 13:42 | 26.92424 | 113.42313 | 35181 ft | 472 kts | 348° |
| 2026-05-04 13:43 | 26.98985 | 113.42058 | 35183 ft | 474 kts | 348° |
| 2026-05-04 13:43 | 27.05610 | 113.41803 | 35180 ft | 473 kts | 348° |
| 2026-05-04 13:44 | 27.12244 | 113.41544 | 35177 ft | 476 kts | 348° |
| 2026-05-04 13:44 | 27.18856 | 113.41291 | 35169 ft | 473 kts | 348° |
| 2026-05-04 13:45 | 27.25457 | 113.41033 | 35166 ft | 474 kts | 348° |
| 2026-05-04 13:45 | 27.32074 | 113.40778 | 35163 ft | 474 kts | 348° |
| 2026-05-04 13:46 | 27.38699 | 113.40788 | 35162 ft | 476 kts | 351° |
| 2026-05-04 13:46 | 27.45372 | 113.40955 | 35159 ft | 477 kts | 351° |
| 2026-05-04 13:47 | 27.51986 | 113.41104 | 35159 ft | 475 kts | 351° |
| 2026-05-04 13:47 | 27.58594 | 113.41243 | 35153 ft | 476 kts | 350° |
| 2026-05-04 13:48 | 27.65200 | 113.41379 | 35152 ft | 474 kts | 350° |
| 2026-05-04 13:48 | 27.71861 | 113.41869 | 35156 ft | 481 kts | 354° |
| 2026-05-04 13:49 | 27.78545 | 113.42505 | 35157 ft | 481 kts | 354° |
| 2026-05-04 13:49 | 27.85196 | 113.43121 | 35156 ft | 478 kts | 354° |
| 2026-05-04 13:50 | 27.91827 | 113.43720 | 35161 ft | 480 kts | 354° |
| 2026-05-04 13:50 | 27.98509 | 113.44312 | 35159 ft | 477 kts | 353° |
| 2026-05-04 13:51 | 28.05207 | 113.44898 | 35164 ft | 480 kts | 353° |
| 2026-05-04 13:51 | 28.11829 | 113.45458 | 35167 ft | 477 kts | 352° |
| 2026-05-04 13:52 | 28.21804 | 113.46156 | 35159 ft | 478 kts | 353° |
| 2026-05-04 13:53 | 28.28421 | 113.46627 | 35160 ft | 478 kts | 353° |
| 2026-05-04 13:53 | 28.35082 | 113.47104 | 35165 ft | 478 kts | 353° |
| 2026-05-04 13:54 | 28.45047 | 113.47819 | 35163 ft | 477 kts | 353° |
| 2026-05-04 13:55 | 28.54980 | 113.48527 | 35169 ft | 477 kts | 353° |
| 2026-05-04 13:55 | 28.64901 | 113.49235 | 35171 ft | 478 kts | 353° |
| 2026-05-04 13:56 | 28.71579 | 113.49715 | 35169 ft | 476 kts | 352° |
| 2026-05-04 13:57 | 28.81497 | 113.50427 | 35171 ft | 476 kts | 353° |
| 2026-05-04 13:58 | 28.94723 | 113.51377 | 35178 ft | 476 kts | 352° |
| 2026-05-04 13:58 | 29.04670 | 113.52092 | 35184 ft | 478 kts | 353° |
| 2026-05-04 13:59 | 29.11333 | 113.52575 | 35190 ft | 474 kts | 353° |
| 2026-05-04 14:00 | 29.21226 | 113.53289 | 35187 ft | 475 kts | 353° |
| 2026-05-04 14:00 | 29.31140 | 113.54027 | 35188 ft | 477 kts | 353° |
| 2026-05-04 14:01 | 29.37779 | 113.54607 | 35170 ft | 478 kts | 354° |
| 2026-05-04 14:02 | 29.47747 | 113.55479 | 35158 ft | 477 kts | 354° |
| 2026-05-04 14:02 | 29.54369 | 113.56055 | 35155 ft | 476 kts | 354° |
| 2026-05-04 14:03 | 29.61011 | 113.56633 | 35151 ft | 476 kts | 354° |
| 2026-05-04 14:03 | 29.67618 | 113.57209 | 35151 ft | 476 kts | 354° |
| 2026-05-04 14:04 | 29.77560 | 113.58073 | 35140 ft | 480 kts | 354° |
| 2026-05-04 14:04 | 29.84226 | 113.58658 | 35144 ft | 476 kts | 354° |
| 2026-05-04 14:05 | 29.94182 | 113.59830 | 35141 ft | 488 kts | 4° |
| 2026-05-04 14:06 | 30.00631 | 113.62558 | 35143 ft | 503 kts | 14° |
| 2026-05-04 14:06 | 30.07097 | 113.65799 | 35136 ft | 504 kts | 15° |
| 2026-05-04 14:07 | 30.13459 | 113.68994 | 34852 ft | 492 kts | 15° |
| 2026-05-04 14:07 | 30.16631 | 113.70579 | 34535 ft | 502 kts | 15° |
| 2026-05-04 14:07 | 30.19881 | 113.72201 | 34176 ft | 509 kts | 15° |
| 2026-05-04 14:07 | 30.22388 | 113.73457 | 33903 ft | 509 kts | 16° |